Rochester Mills, Pennsylvania
Current Conditions -  °F | °C
As of 7:55 AM on Friday 19 Dec 2014 (Local Time) from KIDI Reporting Station
Haze Haze  
Wind Chill: 19°   Ceiling: 700
Heat Index: 28°   Visibility: 5mi
Dew Point: 27°   Wind: 10mph
Humidity: 93%   Direction: 280°W
Pressure: 30.18"   Gusts: NA
Location:  40.82°N, 78.99°W
Report Text: KIDI 191255Z AUTO 28009KT 5SM BR OVC007 M02/M03 A3018 RMK A01
Loading
Personal Weather Stations






























Interactive Weather Map New forecast layout! Learn more

10-Day Weather Forecast

Advertisements
Track Severe Weather on mobile